Date,TemperatureHighF,TemperatureAvgF,TemperatureLowF,DewpointHighF,DewpointAvgF,DewpointLowF,HumidityHigh,HumidityAvg,HumidityLow,PressureMaxIn,PressureMinIn,WindSpeedMaxMPH,WindSpeedAvgMPH,GustSpeedMaxMPH,PrecipitationSumIn
2013-10-1,55,49,43,0,-5,-10,1,1,1,29.87,29.68,9,1,9,0.24
2013-10-2,53,49,45,-2,-5,-8,1,1,1,29.93,29.81,8,0,8,0.38
2013-10-3,53,47,43,-2,-7,-10,1,1,1,30.20,29.93,2,0,2,0.01
2013-10-4,63,48,36,22,-5,-15,21,2,1,30.22,30.11,3,0,3,0.00
2013-10-5,66,52,42,47,4,-21,50,10,1,30.12,29.90,2,0,2,0.00
2013-10-6,74,56,44,53,13,-9,49,16,1,29.90,29.69,6,0,6,0.00
2013-10-7,57,53,50,24,0,-4,30,4,1,29.78,29.69,10,1,10,0.21
2013-10-8,53,49,41,-2,-5,-11,1,1,1,29.83,29.73,9,0,9,0.50
2013-10-9,57,46,36,1,-8,-15,1,1,1,29.89,29.72,2,0,2,0.01
2013-10-10,60,50,42,34,-3,-10,39,4,1,29.84,29.69,4,0,4,0.07
2013-10-11,55,49,45,-1,-5,-8,1,1,1,29.90,29.83,1,0,2,0.19
2013-10-12,55,47,44,0,-7,-10,1,1,1,29.97,29.82,3,0,3,0.08
2013-10-13,52,44,38,-3,-9,-14,1,1,1,30.11,29.97,2,0,2,0.00
2013-10-14,57,45,36,1,-8,-16,1,1,1,30.16,30.11,4,0,4,0.00
2013-10-15,60,48,38,27,-6,-14,28,2,1,30.14,29.94,4,0,4,0.00
2013-10-16,49,45,41,-5,-8,-11,1,1,1,29.96,29.90,0,0,0,0.00
2013-10-17,44,42,40,-9,-11,-12,1,1,1,30.02,29.95,0,0,0,0.00
2013-10-20,46,42,39,-8,-10,-13,1,1,1,29.95,29.90,0,0,0,0.01
2013-10-21,53,42,36,-2,-11,-15,1,1,1,29.92,29.85,0,0,0,0.00
2013-10-22,58,44,35,2,-9,-16,1,1,1,29.87,29.79,0,0,0,0.00
2013-10-23,63,48,38,6,-6,-14,1,1,1,29.80,29.75,0,0,0,0.01
2013-10-24,58,47,38,2,-7,-13,1,1,1,29.88,29.77,0,0,0,0.00
2013-10-25,48,44,41,-6,-9,-12,1,1,1,30.06,29.88,0,0,0,0.01
2013-10-26,45,43,41,-8,-10,-12,1,1,1,30.10,29.95,0,0,0,0.02
2013-10-27,45,43,39,-8,-10,-13,1,1,1,29.95,29.69,3,0,3,0.07
2013-10-28,55,42,36,34,-7,-16,46,5,1,29.73,29.66,4,0,4,0.00
2013-10-29,54,42,34,36,-1,-17,51,14,1,29.80,29.71,3,0,3,0.00
2013-10-30,55,46,37,28,-4,-17,37,6,1,29.91,29.79,4,0,4,0.01
2013-10-31,51,47,44,-4,-6,-9,1,1,1,30.03,29.87,4,0,4,0.05